Time;durP1;ratioP1;P1;durP2;ratioP2;P2;SDS_P1;SDS_P2;PMS_P1;PMS_P2;Temp;Humidity;BMP_temperature;BMP_pressure;BME280_temperature;BME280_humidity;BME280_pressure;Samples;Min_cycle;Max_cycle;Signal;HPM_P1;HPM_P2
2022/09/06 00:01:32;;;;;;;1.50;0.73;;;20.00;98.90;;;;;;4969812;28;20038;-76
2022/09/06 00:03:58;;;;;;;3.22;0.70;;;20.00;99.70;;;;;;4987763;28;20041;-75
2022/09/06 00:06:23;;;;;;;1.90;0.80;;;19.90;99.90;;;;;;4984114;28;20503;-76
2022/09/06 00:08:49;;;;;;;1.98;0.85;;;19.80;99.90;;;;;;4985862;28;20108;-76
2022/09/06 00:11:16;;;;;;;4.22;0.90;;;19.70;99.90;;;;;;4986413;28;20031;-75
2022/09/06 00:13:42;;;;;;;1.85;0.70;;;19.60;99.90;;;;;;4982708;28;20534;-75
2022/09/06 00:16:13;;;;;;;3.13;0.80;;;19.50;99.90;;;;;;4968711;28;20065;-75
2022/09/06 00:18:39;;;;;;;4.57;0.85;;;19.50;99.90;;;;;;4987426;28;20114;-76
2022/09/06 00:21:20;;;;;;;1.33;0.80;;;19.40;99.90;;;;;;4966070;28;20038;-75
2022/09/06 00:23:46;;;;;;;2.08;0.77;;;19.40;99.90;;;;;;4966518;28;20030;-75
2022/09/06 00:26:12;;;;;;;3.40;0.90;;;19.30;99.90;;;;;;4982225;28;20048;-75
2022/09/06 00:28:38;;;;;;;3.65;0.60;;;19.30;99.90;;;;;;4982201;28;20032;-76
2022/09/06 00:31:18;;;;;;;1.70;0.77;;;19.30;99.90;;;;;;4986307;28;20054;-75
2022/09/06 00:33:43;;;;;;;1.63;0.80;;;19.30;99.90;;;;;;4989204;28;20026;-75
2022/09/06 00:36:10;;;;;;;3.50;0.93;;;19.30;99.90;;;;;;4986978;28;20031;-76
2022/09/06 00:38:36;;;;;;;3.00;0.90;;;19.30;99.90;;;;;;4989590;28;20056;-76
2022/09/06 00:41:03;;;;;;;1.80;0.95;;;19.20;99.90;;;;;;4986959;28;20053;-76
2022/09/06 00:43:28;;;;;;;1.70;0.80;;;19.20;99.90;;;;;;4990696;28;20038;-76
2022/09/06 00:45:54;;;;;;;3.50;1.23;;;19.20;99.90;;;;;;4988032;28;20509;-76
2022/09/06 00:48:21;;;;;;;3.90;0.90;;;19.20;99.90;;;;;;4967023;28;20090;-75
2022/09/06 00:50:50;;;;;;;1.98;0.95;;;19.10;99.90;;;;;;4967914;28;20034;-76
2022/09/06 00:53:18;;;;;;;3.47;1.05;;;19.10;99.90;;;;;;4966954;28;20026;-76
2022/09/06 00:55:44;;;;;;;3.17;0.98;;;19.10;99.90;;;;;;4987205;28;20089;-76
2022/09/06 00:58:10;;;;;;;2.10;1.20;;;19.10;99.90;;;;;;4986614;28;20053;-76
2022/09/06 01:00:36;;;;;;;4.63;1.50;;;19.10;99.90;;;;;;4985518;28;20023;-76
2022/09/06 01:03:02;;;;;;;2.88;1.25;;;19.10;99.90;;;;;;4984216;28;20034;-76
2022/09/06 01:05:39;;;;;;;3.38;2.00;;;19.00;99.90;;;;;;4989949;28;20022;-76
2022/09/06 01:08:25;;;;;;;5.05;2.15;;;19.00;99.90;;;;;;4965963;28;20030;-75
2022/09/06 01:11:14;;;;;;;2.65;2.15;;;18.90;99.90;;;;;;4984015;28;20030;-75
2022/09/06 01:13:56;;;;;;;3.20;2.42;;;18.90;99.90;;;;;;4981670;28;20545;-76
2022/09/06 01:16:50;;;;;;;5.45;2.78;;;18.80;99.90;;;;;;4988269;28;20054;-76
2022/09/06 01:20:08;;;;;;;3.70;2.72;;;18.80;99.90;;;;;;4987193;28;20050;-75
2022/09/06 01:23:03;;;;;;;3.80;2.55;;;18.70;99.90;;;;;;4906932;29;20036;-75
2022/09/06 01:26:02;;;;;;;5.28;2.53;;;18.70;99.90;;;;;;4985177;28;20029;-76
2022/09/06 01:28:45;;;;;;;5.03;3.40;;;18.70;99.90;;;;;;4983710;28;20154;-75
2022/09/06 01:31:46;;;;;;;3.90;2.33;;;18.60;99.90;;;;;;4983657;28;20113;-75
2022/09/06 01:34:23;;;;;;;4.03;2.38;;;18.60;99.90;;;;;;4970941;28;20034;-76
2022/09/06 01:36:56;;;;;;;3.83;2.92;;;18.60;99.90;;;;;;4983492;28;20034;-75
2022/09/06 01:39:33;;;;;;;5.15;2.28;;;18.60;99.90;;;;;;4987095;28;20130;-75
2022/09/06 01:42:05;;;;;;;4.03;2.92;;;18.60;99.90;;;;;;4985772;28;20541;-75
2022/09/06 01:44:32;;;;;;;5.97;3.33;;;18.60;99.90;;;;;;4966712;28;20061;-75
2022/09/06 01:47:20;;;;;;;5.28;2.97;;;18.70;99.90;;;;;;4983446;28;20360;-75
2022/09/06 01:49:58;;;;;;;3.40;2.60;;;18.60;99.90;;;;;;4987479;28;20113;-76
2022/09/06 01:53:03;;;;;;;5.70;3.10;;;18.60;99.90;;;;;;4985156;28;20038;-76
2022/09/06 01:55:42;;;;;;;4.28;2.90;;;18.60;99.90;;;;;;4984629;28;20026;-76
2022/09/06 01:58:34;;;;;;;4.30;2.47;;;18.50;99.90;;;;;;4989262;28;20038;-75
2022/09/06 02:01:02;;;;;;;5.73;3.70;;;18.50;99.90;;;;;;4988347;28;20022;-75
2022/09/06 02:03:44;;;;;;;5.20;3.40;;;18.40;99.90;;;;;;4996713;28;20026;-75
2022/09/06 02:06:17;;;;;;;5.82;3.78;;;18.30;99.90;;;;;;4995459;28;20034;-75
2022/09/06 02:09:05;;;;;;;4.68;3.28;;;18.30;99.90;;;;;;4990933;28;20100;-75
2022/09/06 02:11:39;;;;;;;6.15;3.72;;;18.30;99.90;;;;;;4993962;28;20064;-75
2022/09/06 02:14:12;;;;;;;4.40;3.85;;;18.20;99.90;;;;;;4988371;28;20054;-75
2022/09/06 02:16:40;;;;;;;7.45;4.55;;;18.20;99.90;;;;;;4973175;28;20105;-75
2022/09/06 02:19:16;;;;;;;5.78;4.63;;;18.20;99.90;;;;;;4993252;28;20429;-75
2022/09/06 02:21:46;;;;;;;5.15;4.13;;;18.20;99.90;;;;;;4992466;28;20045;-75
2022/09/06 02:24:19;;;;;;;5.82;4.32;;;18.20;99.90;;;;;;4996363;28;20109;-75
2022/09/06 02:26:46;;;;;;;7.30;4.45;;;18.10;99.90;;;;;;4985842;28;20069;-75
2022/09/06 02:29:12;;;;;;;5.90;4.47;;;18.10;99.90;;;;;;4986325;28;20432;-75
2022/09/06 02:31:44;;;;;;;6.00;4.30;;;18.10;99.90;;;;;;4993661;28;20378;-75
2022/09/06 02:34:14;;;;;;;6.35;4.20;;;18.10;99.90;;;;;;4991669;28;20031;-75
2022/09/06 02:36:39;;;;;;;6.40;3.92;;;18.10;99.90;;;;;;4989693;28;20042;-76
2022/09/06 02:39:05;;;;;;;7.78;4.45;;;18.20;99.90;;;;;;4984527;28;20022;-75
2022/09/06 02:41:32;;;;;;;4.88;4.38;;;18.20;99.90;;;;;;4987749;28;20169;-75
2022/09/06 02:43:57;;;;;;;5.63;4.80;;;18.20;99.90;;;;;;4985114;28;20023;-76
2022/09/06 02:46:23;;;;;;;6.43;4.45;;;18.20;99.90;;;;;;4986632;28;20038;-76
2022/09/06 02:48:49;;;;;;;7.28;4.65;;;18.20;99.90;;;;;;5001816;28;20022;-76
2022/09/06 02:51:15;;;;;;;6.88;5.13;;;18.30;99.90;;;;;;4990157;28;20497;-76
2022/09/06 02:53:40;;;;;;;4.95;4.38;;;18.20;99.90;;;;;;4989805;28;20031;-76
2022/09/06 02:56:06;;;;;;;8.57;4.60;;;18.20;99.90;;;;;;4990381;28;20058;-76
2022/09/06 02:58:31;;;;;;;6.03;4.85;;;18.20;99.90;;;;;;4989006;28;20557;-76
2022/09/06 03:00:57;;;;;;;6.05;4.50;;;18.20;99.90;;;;;;4992821;28;20032;-75
2022/09/06 03:03:23;;;;;;;6.00;5.30;;;18.30;99.90;;;;;;4986120;28;20089;-76
2022/09/06 03:05:50;;;;;;;7.53;5.57;;;18.20;99.90;;;;;;4997246;28;20110;-76
2022/09/06 03:08:17;;;;;;;6.85;5.25;;;18.20;99.90;;;;;;4987898;28;20026;-76
2022/09/06 03:10:50;;;;;;;8.05;5.55;;;18.20;99.90;;;;;;4986735;28;20034;-76
2022/09/06 03:13:16;;;;;;;5.47;4.97;;;18.20;99.90;;;;;;4996821;28;20390;-75
2022/09/06 03:15:41;;;;;;;7.93;5.72;;;18.10;99.90;;;;;;5004954;28;20040;-76
2022/09/06 03:18:07;;;;;;;8.43;5.18;;;18.20;99.90;;;;;;4990263;28;20041;-76
2022/09/06 03:20:33;;;;;;;6.22;5.47;;;18.20;99.90;;;;;;4983730;28;20023;-76
2022/09/06 03:22:58;;;;;;;9.85;5.45;;;18.20;99.90;;;;;;4993112;28;20426;-76
2022/09/06 03:25:24;;;;;;;6.85;5.55;;;18.20;99.90;;;;;;4991075;28;20111;-75
2022/09/06 03:27:50;;;;;;;7.65;5.63;;;18.10;99.90;;;;;;4999969;28;20949;-75
2022/09/06 03:30:15;;;;;;;8.60;6.10;;;18.10;99.90;;;;;;4974169;28;20037;-75
2022/09/06 03:32:41;;;;;;;7.22;6.28;;;18.10;99.90;;;;;;4989065;28;20050;-76
2022/09/06 03:35:08;;;;;;;9.70;7.20;;;18.10;99.90;;;;;;4991540;28;20022;-76
2022/09/06 03:37:33;;;;;;;7.57;6.30;;;18.10;99.90;;;;;;4989354;28;20398;-76
2022/09/06 03:39:59;;;;;;;10.18;6.78;;;18.10;99.90;;;;;;4973430;28;20026;-75
2022/09/06 03:42:26;;;;;;;8.27;6.38;;;18.10;99.90;;;;;;4973112;28;20046;-75
2022/09/06 03:44:52;;;;;;;10.68;7.90;;;18.10;99.90;;;;;;4990622;28;20022;-75
2022/09/06 03:47:18;;;;;;;10.35;8.15;;;18.10;99.90;;;;;;4985232;28;20062;-76
2022/09/06 03:49:44;;;;;;;9.48;7.95;;;18.10;99.90;;;;;;4974142;28;20082;-76
2022/09/06 03:52:09;;;;;;;9.57;8.32;;;18.10;99.90;;;;;;4988936;28;20390;-75
2022/09/06 03:54:35;;;;;;;12.15;8.82;;;18.10;99.90;;;;;;4976369;28;20352;-75
2022/09/06 03:57:01;;;;;;;11.32;9.02;;;18.10;99.90;;;;;;4987797;28;20070;-75
2022/09/06 03:59:26;;;;;;;10.30;8.48;;;18.10;99.90;;;;;;4988121;28;20057;-75
2022/09/06 04:01:52;;;;;;;12.98;8.90;;;18.10;99.90;;;;;;4989913;28;20044;-76
2022/09/06 04:04:17;;;;;;;10.68;9.13;;;18.00;99.90;;;;;;4972674;28;20030;-76
2022/09/06 04:06:43;;;;;;;13.27;9.95;;;18.00;99.90;;;;;;4983417;28;20037;-75
2022/09/06 04:09:08;;;;;;;10.20;8.60;;;18.00;99.90;;;;;;4987934;28;20415;-75
2022/09/06 04:11:34;;;;;;;11.43;9.85;;;18.00;99.90;;;;;;4988197;28;20037;-75
2022/09/06 04:13:59;;;;;;;10.38;9.00;;;17.90;99.90;;;;;;4990018;28;20030;-75
2022/09/06 04:16:25;;;;;;;10.70;9.05;;;17.90;99.90;;;;;;4987763;28;21967;-76
2022/09/06 04:18:50;;;;;;;11.27;8.98;;;18.00;99.90;;;;;;4990562;28;20546;-75
2022/09/06 04:21:16;;;;;;;13.00;9.15;;;17.90;99.90;;;;;;4970191;28;20483;-75
2022/09/06 04:23:41;;;;;;;13.88;9.60;;;17.90;99.90;;;;;;4991892;28;20490;-75
2022/09/06 04:26:07;;;;;;;14.75;9.43;;;17.80;99.90;;;;;;4988680;28;20026;-75
2022/09/06 04:28:33;;;;;;;15.38;9.35;;;17.80;99.90;;;;;;4989009;28;20077;-75
2022/09/06 04:31:00;;;;;;;12.05;9.57;;;17.80;99.90;;;;;;4980699;28;20085;-75
2022/09/06 04:33:27;;;;;;;12.68;10.38;;;17.80;99.90;;;;;;4986089;28;20018;-76
2022/09/06 04:35:57;;;;;;;12.77;9.80;;;17.70;99.90;;;;;;4976574;28;20058;-75
2022/09/06 04:38:28;;;;;;;11.85;9.70;;;17.70;99.90;;;;;;4991821;28;20073;-75
2022/09/06 04:40:56;;;;;;;12.85;9.68;;;17.60;99.90;;;;;;4985709;28;20399;-75
2022/09/06 04:43:22;;;;;;;12.90;9.48;;;17.60;99.90;;;;;;4976256;28;20027;-75
2022/09/06 04:45:48;;;;;;;13.23;9.77;;;17.50;99.90;;;;;;4967980;28;20066;-75
2022/09/06 04:48:14;;;;;;;13.43;10.20;;;17.50;99.90;;;;;;4971507;28;20075;-75
2022/09/06 04:50:40;;;;;;;28.88;10.98;;;17.40;99.90;;;;;;4971315;28;20089;-76
2022/09/06 04:53:06;;;;;;;12.32;10.05;;;17.30;99.90;;;;;;4964934;28;20101;-75
2022/09/06 04:55:33;;;;;;;9.52;8.52;;;17.30;99.90;;;;;;4966962;28;20398;-75
2022/09/06 04:57:59;;;;;;;13.70;9.73;;;17.20;99.90;;;;;;4954203;28;20039;-75
2022/09/06 05:00:25;;;;;;;15.05;10.18;;;17.20;99.90;;;;;;4970453;28;20027;-75
2022/09/06 05:02:51;;;;;;;12.65;9.82;;;17.20;99.90;;;;;;4974386;28;20039;-76
2022/09/06 05:05:17;;;;;;;11.40;9.18;;;17.10;99.90;;;;;;4971780;28;20037;-76
2022/09/06 05:07:42;;;;;;;9.15;8.15;;;17.00;99.90;;;;;;4968122;28;20027;-75
2022/09/06 05:10:08;;;;;;;14.18;10.40;;;17.00;99.90;;;;;;4966881;28;20047;-75
2022/09/06 05:12:33;;;;;;;14.68;11.40;;;16.90;99.90;;;;;;4967694;28;20035;-75
2022/09/06 05:14:59;;;;;;;11.95;10.15;;;16.90;99.90;;;;;;4973686;28;20467;-75
2022/09/06 05:17:25;;;;;;;12.93;9.95;;;16.90;99.90;;;;;;4980633;28;20077;-75
2022/09/06 05:19:50;;;;;;;14.07;10.63;;;16.90;99.90;;;;;;4972905;28;20027;-75
2022/09/06 05:22:16;;;;;;;13.15;9.88;;;16.90;99.90;;;;;;4952638;28;20041;-75
2022/09/06 05:24:41;;;;;;;13.95;11.10;;;16.90;99.90;;;;;;4957441;28;20047;-75
2022/09/06 05:27:07;;;;;;;13.35;11.13;;;16.80;99.90;;;;;;4965799;28;20037;-75
2022/09/06 05:29:33;;;;;;;13.93;11.30;;;16.80;99.90;;;;;;4968514;28;20039;-75
2022/09/06 05:31:58;;;;;;;12.07;10.63;;;16.80;99.90;;;;;;4966088;28;20034;-75
2022/09/06 05:34:24;;;;;;;15.13;11.18;;;16.80;99.90;;;;;;4969131;28;20045;-75
2022/09/06 05:36:50;;;;;;;14.35;10.43;;;16.80;99.90;;;;;;4970568;28;20090;-74
2022/09/06 05:39:17;;;;;;;13.10;10.63;;;16.80;99.90;;;;;;4969953;28;20062;-75
2022/09/06 05:41:43;;;;;;;12.73;11.32;;;16.80;99.90;;;;;;4984609;28;20057;-75
2022/09/06 05:44:08;;;;;;;15.35;11.15;;;16.80;99.90;;;;;;4950952;28;20022;-76
2022/09/06 05:46:41;;;;;;;17.67;10.77;;;16.80;99.90;;;;;;4970855;28;20035;-76
2022/09/06 05:49:06;;;;;;;;;;;16.80;99.90;;;;;;4962255;28;20448;-75
2022/09/06 05:51:32;;;;;;;11.02;9.90;;;16.80;99.90;;;;;;4974023;28;19914;-75
2022/09/06 05:53:58;;;;;;;15.57;12.15;;;16.80;99.90;;;;;;4971219;28;20476;-75
2022/09/06 05:56:24;;;;;;;13.82;12.02;;;16.80;99.90;;;;;;4973963;28;20066;-73
2022/09/06 05:58:49;;;;;;;14.55;12.10;;;16.80;99.90;;;;;;4972682;28;20069;-74
2022/09/06 06:01:21;;;;;;;16.13;12.88;;;16.80;99.90;;;;;;4974850;28;20316;-74
2022/09/06 06:04:06;;;;;;;18.40;12.98;;;16.90;99.90;;;;;;4971259;28;20039;-75
2022/09/06 06:06:33;;;;;;;15.02;12.60;;;16.90;99.90;;;;;;4978993;28;20030;-75
2022/09/06 06:08:59;;;;;;;17.10;13.20;;;17.00;99.90;;;;;;4976269;28;20110;-74
2022/09/06 06:11:25;;;;;;;13.43;11.50;;;17.00;99.90;;;;;;4975080;28;20114;-74
2022/09/06 06:13:52;;;;;;;13.65;12.25;;;17.00;99.90;;;;;;4961765;28;20030;-74
2022/09/06 06:16:20;;;;;;;14.35;12.70;;;17.00;99.90;;;;;;4957371;28;20123;-74
2022/09/06 06:18:47;;;;;;;18.75;12.70;;;17.10;99.90;;;;;;4967883;28;20414;-74
2022/09/06 06:21:14;;;;;;;14.35;12.85;;;17.20;99.90;;;;;;4966093;28;20067;-74
2022/09/06 06:23:40;;;;;;;19.13;15.82;;;17.20;99.90;;;;;;4959510;28;20058;-74
2022/09/06 06:26:07;;;;;;;20.45;16.92;;;17.30;99.90;;;;;;4956593;28;20047;-74
2022/09/06 06:28:34;;;;;;;19.15;16.40;;;17.30;99.90;;;;;;4978532;28;20038;-74
2022/09/06 06:31:00;;;;;;;20.85;16.90;;;17.50;99.90;;;;;;4985023;28;20035;-74
2022/09/06 06:33:26;;;;;;;20.00;16.30;;;17.50;99.90;;;;;;4973969;28;20038;-75
2022/09/06 06:36:02;;;;;;;17.30;15.10;;;17.60;99.90;;;;;;4973857;28;20034;-74
2022/09/06 06:38:32;;;;;;;20.30;16.20;;;17.80;99.90;;;;;;4970722;28;20050;-74
2022/09/06 06:40:59;;;;;;;18.10;15.93;;;17.80;99.90;;;;;;4980904;28;20038;-74
2022/09/06 06:43:25;;;;;;;17.73;15.38;;;17.90;99.90;;;;;;4990979;28;20394;-74
2022/09/06 06:45:51;;;;;;;21.08;16.02;;;17.90;99.90;;;;;;5005736;28;20026;-74
2022/09/06 06:48:16;;;;;;;19.80;16.02;;;18.00;99.90;;;;;;5003179;28;20026;-74
2022/09/06 06:50:42;;;;;;;19.63;16.95;;;18.10;99.90;;;;;;5002271;28;20038;-74
2022/09/06 06:53:07;;;;;;;19.05;15.23;;;18.20;99.90;;;;;;4997972;28;20044;-73
2022/09/06 06:55:34;;;;;;;18.08;15.60;;;18.30;99.90;;;;;;4995761;28;20030;-73
2022/09/06 06:58:00;;;;;;;18.38;16.15;;;18.40;99.90;;;;;;4990743;28;20041;-74
2022/09/06 07:00:25;;;;;;;21.38;17.08;;;18.50;99.90;;;;;;4989724;28;20022;-74
2022/09/06 07:02:52;;;;;;;16.33;14.48;;;18.60;99.90;;;;;;4988793;28;20048;-74
2022/09/06 07:05:18;;;;;;;17.42;15.63;;;18.70;99.90;;;;;;5421068;23;20050;-88
2022/09/06 07:07:43;;;;;;;18.55;15.07;;;18.90;99.90;;;;;;4969397;28;20441;-88
2022/09/06 07:10:09;;;;;;;17.63;15.82;;;18.90;99.90;;;;;;4994885;28;20040;-89
2022/09/06 07:12:35;;;;;;;17.88;15.80;;;19.00;99.90;;;;;;4993926;28;20786;-88
2022/09/06 07:15:01;;;;;;;16.10;13.30;;;19.10;99.90;;;;;;4994680;28;20054;-87
2022/09/06 07:17:27;;;;;;;14.65;12.95;;;19.20;99.90;;;;;;4993103;28;20031;-87
2022/09/06 07:19:53;;;;;;;14.60;12.00;;;19.30;99.90;;;;;;4975957;28;20027;-88
2022/09/06 07:22:18;;;;;;;14.93;12.13;;;19.40;99.90;;;;;;4976974;28;20049;-87
2022/09/06 07:24:44;;;;;;;13.02;11.68;;;19.50;99.90;;;;;;4992590;28;20077;-88
2022/09/06 07:27:09;;;;;;;13.10;11.27;;;19.60;99.90;;;;;;4975193;28;20038;-88
2022/09/06 07:29:35;;;;;;;12.25;11.00;;;19.70;99.90;;;;;;4976639;28;20109;-88
2022/09/06 07:32:00;;;;;;;13.98;11.02;;;19.80;99.90;;;;;;4977473;28;20355;-86
2022/09/06 07:34:26;;;;;;;12.55;10.35;;;19.90;99.90;;;;;;4971745;28;20045;-90
2022/09/06 07:36:53;;;;;;;12.65;10.48;;;20.00;99.90;;;;;;4976787;28;20110;-89
2022/09/06 07:39:18;;;;;;;12.20;10.23;;;20.10;99.90;;;;;;4977710;28;20062;-89
2022/09/06 07:41:44;;;;;;;13.05;10.43;;;20.30;99.90;;;;;;4976306;28;20060;-89
2022/09/06 07:44:09;;;;;;;13.25;10.10;;;20.40;99.90;;;;;;4977923;28;20034;-88
2022/09/06 07:46:35;;;;;;;14.25;10.85;;;20.50;99.90;;;;;;4977485;28;20019;-89
2022/09/06 07:49:04;;;;;;;12.93;9.35;;;20.60;99.90;;;;;;4971801;28;20027;-88
2022/09/06 07:51:29;;;;;;;13.90;11.30;;;20.70;99.90;;;;;;4975292;28;20018;-89
2022/09/06 07:53:55;;;;;;;12.85;9.07;;;20.80;99.90;;;;;;4975821;28;20037;-89
2022/09/06 07:56:21;;;;;;;16.00;10.65;;;20.90;99.90;;;;;;4969150;28;20066;-89
2022/09/06 07:58:47;;;;;;;14.30;11.00;;;21.00;99.90;;;;;;4975602;28;20069;-89
2022/09/06 08:01:26;;;;;;;12.55;10.98;;;21.00;99.90;;;;;;4980550;28;20026;-89
2022/09/06 08:03:52;;;;;;;12.75;10.82;;;21.10;99.90;;;;;;4978227;28;20026;-88
2022/09/06 08:06:18;;;;;;;13.00;11.18;;;21.20;99.90;;;;;;4979402;28;20046;-89
2022/09/06 08:08:43;;;;;;;13.52;10.88;;;21.20;99.90;;;;;;4978646;28;20039;-89
2022/09/06 08:11:09;;;;;;;10.38;9.38;;;21.30;99.90;;;;;;4980759;28;20027;-89
2022/09/06 08:13:35;;;;;;;11.18;8.88;;;21.40;99.90;;;;;;4981670;28;20030;-89
2022/09/06 08:16:04;;;;;;;10.88;9.10;;;21.50;99.90;;;;;;4979368;28;20386;-89
2022/09/06 08:18:29;;;;;;;11.25;8.75;;;21.60;99.90;;;;;;4977764;28;20038;-89
2022/09/06 08:20:55;;;;;;;10.32;8.52;;;21.70;99.90;;;;;;4996979;28;20076;-89
2022/09/06 08:23:20;;;;;;;8.30;7.45;;;21.80;99.90;;;;;;4978922;28;20069;-89
2022/09/06 08:25:57;;;;;;;11.75;8.70;;;21.90;99.90;;;;;;4979441;28;20022;-89
2022/09/06 08:28:22;;;;;;;7.97;7.10;;;22.00;99.90;;;;;;4979251;28;20041;-89
2022/09/06 08:30:48;;;;;;;9.95;6.93;;;22.00;99.90;;;;;;4979892;28;20057;-89
2022/09/06 08:33:14;;;;;;;8.82;7.15;;;22.10;99.90;;;;;;4994468;28;20023;-89
2022/09/06 08:35:40;;;;;;;8.40;6.82;;;22.20;99.90;;;;;;4978441;28;20026;-90
2022/09/06 08:38:05;;;;;;;7.53;6.10;;;22.30;99.90;;;;;;4978882;28;20045;-88
2022/09/06 08:40:31;;;;;;;9.10;7.18;;;22.50;99.90;;;;;;4978429;28;20057;-89
2022/09/06 08:42:57;;;;;;;10.40;6.43;;;22.60;99.90;;;;;;4976597;28;20088;-89
2022/09/06 08:45:23;;;;;;;7.68;6.18;;;22.70;99.90;;;;;;4983679;28;20022;-89
2022/09/06 08:47:51;;;;;;;7.60;5.88;;;22.80;99.90;;;;;;4976173;28;20062;-89
2022/09/06 08:50:17;;;;;;;7.70;5.50;;;22.90;99.90;;;;;;4978976;28;20161;-89
2022/09/06 08:52:55;;;;;;;8.55;5.88;;;23.00;99.90;;;;;;4975951;28;20030;-89
2022/09/06 08:55:41;;;;;;;9.35;5.93;;;23.20;99.90;;;;;;4974948;28;20438;-89
2022/09/06 08:58:25;;;;;;;8.88;5.00;;;23.30;99.90;;;;;;4971121;28;20043;-89
2022/09/06 09:00:59;;;;;;;8.43;5.07;;;23.30;99.90;;;;;;4982214;28;20377;-90
2022/09/06 09:03:35;;;;;;;8.63;5.40;;;23.50;99.90;;;;;;4977835;28;20030;-89
2022/09/06 09:06:04;;;;;;;5.15;4.05;;;23.60;99.90;;;;;;4976143;28;20049;-89
2022/09/06 09:08:45;;;;;;;5.20;3.63;;;23.60;99.90;;;;;;4977326;28;20022;-88
2022/09/06 09:11:19;;;;;;;4.18;3.13;;;23.80;99.90;;;;;;4985457;28;20118;-88
2022/09/06 09:14:01;;;;;;;6.55;3.45;;;23.90;99.90;;;;;;4972470;28;20030;-89
2022/09/06 09:16:26;;;;;;;6.95;3.78;;;24.00;99.10;;;;;;4968115;28;20030;-89
2022/09/06 09:18:55;;;;;;;5.10;3.75;;;24.10;99.00;;;;;;4983525;28;20053;-89
2022/09/06 09:21:23;;;;;;;5.03;3.25;;;24.10;98.50;;;;;;4978909;28;20371;-89
2022/09/06 09:23:54;;;;;;;6.07;3.50;;;24.30;98.00;;;;;;4987138;28;20077;-88
2022/09/06 09:26:22;;;;;;;5.22;3.40;;;24.30;97.60;;;;;;4973041;28;20069;-88
2022/09/06 09:29:06;;;;;;;4.93;2.38;;;24.40;97.50;;;;;;4978584;28;20034;-89
2022/09/06 09:31:40;;;;;;;2.90;1.90;;;24.50;97.00;;;;;;5004237;28;20032;-88
2022/09/06 09:34:11;;;;;;;2.40;1.67;;;24.50;96.70;;;;;;5006382;28;20030;-88
2022/09/06 09:36:38;;;;;;;4.00;1.50;;;24.60;96.40;;;;;;4977758;28;20023;-88
2022/09/06 09:39:11;;;;;;;4.18;0.95;;;24.70;96.30;;;;;;4996313;28;20041;-88
2022/09/06 09:41:40;;;;;;;2.20;1.00;;;24.80;95.90;;;;;;4978444;28;20027;-88
2022/09/06 09:44:16;;;;;;;4.18;0.80;;;24.90;95.60;;;;;;4995951;28;20030;-88
2022/09/06 09:46:42;;;;;;;2.80;0.90;;;24.90;95.40;;;;;;4992024;28;20069;-88
2022/09/06 09:49:13;;;;;;;4.10;0.70;;;25.00;95.10;;;;;;4989691;28;20215;-88
2022/09/06 09:51:41;;;;;;;3.70;0.73;;;25.10;94.80;;;;;;4964659;28;20056;-88
2022/09/06 09:54:09;;;;;;;2.53;0.85;;;25.10;94.50;;;;;;4995467;28;20038;-89
2022/09/06 09:56:40;;;;;;;2.90;0.85;;;25.20;94.40;;;;;;4977014;28;20026;-88
2022/09/06 09:59:26;;;;;;;2.33;0.60;;;25.30;94.00;;;;;;5001939;28;20117;-88
2022/09/06 10:02:14;;;;;;;1.83;0.60;;;25.30;93.70;;;;;;4978821;28;20535;-89
2022/09/06 10:04:49;;;;;;;2.83;1.02;;;25.40;93.70;;;;;;4927110;28;1257483;-88
2022/09/06 10:07:23;;;;;;;1.95;0.60;;;25.60;93.40;;;;;;4996558;28;20037;-89
2022/09/06 10:09:57;;;;;;;3.08;0.88;;;25.60;93.10;;;;;;5001587;28;20035;-90
2022/09/06 10:12:33;;;;;;;2.05;0.80;;;25.60;92.90;;;;;;4979343;28;20030;-89
2022/09/06 10:14:59;;;;;;;4.90;1.00;;;25.70;92.70;;;;;;4979210;28;20069;-88
2022/09/06 10:17:32;;;;;;;2.72;0.90;;;25.70;92.40;;;;;;4979050;28;20030;-89
2022/09/06 10:20:09;;;;;;;3.05;1.00;;;25.80;92.10;;;;;;4996552;28;20038;-90
2022/09/06 10:22:52;;;;;;;2.78;0.70;;;25.80;91.80;;;;;;5008147;28;20030;-90
2022/09/06 10:25:30;;;;;;;2.42;0.93;;;25.90;91.60;;;;;;5003898;28;20033;-90
2022/09/06 10:28:09;;;;;;;3.70;0.90;;;25.90;91.20;;;;;;4979180;28;20394;-90
2022/09/06 10:30:50;;;;;;;2.85;0.90;;;25.90;91.40;;;;;;4978814;28;20054;-89
2022/09/06 10:33:24;;;;;;;2.70;1.10;;;26.00;91.30;;;;;;5003505;28;20020;-88
2022/09/06 10:35:50;;;;;;;2.22;1.05;;;26.10;91.00;;;;;;5008660;28;20030;-88
2022/09/06 10:38:51;;;;;;;5.95;1.25;;;26.20;91.00;;;;;;4981073;28;20038;-88
2022/09/06 10:41:39;;;;;;;3.67;1.33;;;26.30;91.00;;;;;;4998574;28;20104;-91
2022/09/06 10:44:26;;;;;;;2.28;0.80;;;26.30;90.50;;;;;;4988889;28;20027;-89
2022/09/06 10:47:09;;;;;;;4.40;0.90;;;26.30;90.50;;;;;;4978137;28;20038;-91
2022/09/06 10:49:37;;;;;;;3.75;1.00;;;26.40;90.30;;;;;;4995612;28;20022;-90
2022/09/06 10:52:06;;;;;;;2.75;1.00;;;26.40;90.20;;;;;;4996023;28;20090;-89
2022/09/06 10:54:36;;;;;;;2.10;0.70;;;26.40;90.00;;;;;;4978419;28;20019;-91
2022/09/06 10:57:32;;;;;;;4.88;1.38;;;26.50;90.30;;;;;;4991265;28;20065;-89
2022/09/06 11:00:15;;;;;;;3.25;1.38;;;26.50;90.10;;;;;;4947964;28;20042;-89
2022/09/06 11:03:06;;;;;;;2.33;0.95;;;26.60;90.00;;;;;;4995745;28;20022;-89
2022/09/06 11:05:41;;;;;;;2.10;1.30;;;26.80;90.10;;;;;;4974875;28;20046;-90
2022/09/06 11:08:24;;;;;;;3.08;1.00;;;26.90;89.80;;;;;;4974489;28;20026;-89
2022/09/06 11:10:54;;;;;;;4.38;0.95;;;26.90;89.80;;;;;;4957397;28;20031;-90
2022/09/06 11:13:23;;;;;;;4.82;1.20;;;27.00;89.20;;;;;;4980824;28;20053;-90
2022/09/06 11:16:26;;;;;;;2.75;1.00;;;27.00;88.60;;;;;;5002543;28;20057;-90
2022/09/06 11:19:07;;;;;;;1.52;0.73;;;27.10;88.70;;;;;;4977434;28;20049;-90
2022/09/06 11:21:54;;;;;;;2.95;1.35;;;27.20;88.80;;;;;;4985056;28;20032;-89
2022/09/06 11:24:32;;;;;;;2.90;0.93;;;27.20;87.60;;;;;;4981076;28;20042;-89
2022/09/06 11:27:26;;;;;;;2.47;0.70;;;27.20;87.50;;;;;;4976961;28;20031;-89
2022/09/06 11:29:57;;;;;;;2.47;0.80;;;27.30;87.60;;;;;;4994695;28;20029;-88
2022/09/06 11:32:47;;;;;;;3.38;0.82;;;27.40;87.10;;;;;;4977711;28;20022;-89
2022/09/06 11:35:31;;;;;;;3.03;0.90;;;27.50;86.60;;;;;;4971997;28;20030;-90
2022/09/06 11:38:15;;;;;;;2.40;0.98;;;27.50;86.20;;;;;;4976149;28;20493;-89
2022/09/06 11:41:03;;;;;;;7.90;0.90;;;27.60;86.20;;;;;;4978804;28;20030;-84
2022/09/06 11:43:50;;;;;;;3.42;0.60;;;27.60;85.60;;;;;;4977871;28;20023;-88
2022/09/06 11:46:57;;;;;;;2.33;0.60;;;27.70;86.10;;;;;;4986459;28;20026;-89
2022/09/06 11:49:32;;;;;;;2.53;0.80;;;27.70;85.60;;;;;;4977205;28;20034;-88
2022/09/06 11:51:58;;;;;;;2.72;0.70;;;27.80;85.10;;;;;;4976408;28;20022;-88
2022/09/06 11:54:45;;;;;;;3.05;0.90;;;27.80;85.10;;;;;;4989088;28;20029;-90
2022/09/06 11:57:20;;;;;;;2.45;0.70;;;27.90;85.10;;;;;;4977091;28;20026;-90
2022/09/06 11:59:46;;;;;;;2.22;0.90;;;28.00;85.00;;;;;;4984939;28;20061;-89
2022/09/06 12:02:30;;;;;;;4.03;1.27;;;28.00;84.60;;;;;;4978272;28;20033;-88
2022/09/06 12:05:05;;;;;;;5.28;1.77;;;28.00;84.00;;;;;;4979093;28;20055;-89
2022/09/06 12:07:33;;;;;;;3.10;1.05;;;28.00;83.70;;;;;;4960069;28;20139;-89
2022/09/06 12:10:30;;;;;;;4.75;0.95;;;27.90;84.10;;;;;;4970678;28;20077;-89
2022/09/06 12:12:57;;;;;;;3.10;1.27;;;28.00;83.60;;;;;;4976429;28;20023;-89
2022/09/06 12:15:22;;;;;;;3.65;0.85;;;28.00;83.10;;;;;;4963744;28;20084;-88
2022/09/06 12:17:48;;;;;;;2.20;1.27;;;28.00;82.40;;;;;;4975636;28;20129;-89
2022/09/06 12:20:53;;;;;;;3.50;1.50;;;27.90;82.20;;;;;;4960183;28;20025;-88
2022/09/06 12:23:33;;;;;;;1.90;1.10;;;27.80;82.90;;;;;;4973660;28;20030;-90
2022/09/06 12:26:01;;;;;;;4.35;1.75;;;27.90;82.80;;;;;;4970092;28;20038;-90
2022/09/06 12:28:49;;;;;;;5.00;2.30;;;27.90;82.90;;;;;;4955297;28;20026;-89
2022/09/06 12:31:41;;;;;;;5.15;2.33;;;27.90;82.90;;;;;;4959908;28;20046;-90
2022/09/06 12:34:16;;;;;;;3.90;1.60;;;28.00;82.70;;;;;;4976833;28;20030;-90
2022/09/06 12:36:55;;;;;;;4.80;1.73;;;28.00;82.70;;;;;;4984518;28;20112;-90
2022/09/06 12:39:22;;;;;;;4.28;2.00;;;28.10;82.90;;;;;;4961559;28;20026;-87
2022/09/06 12:41:53;;;;;;;4.85;2.03;;;28.20;82.30;;;;;;4979195;28;20374;-87
2022/09/06 12:44:27;;;;;;;2.95;1.35;;;28.20;81.80;;;;;;4962142;28;20507;-87
2022/09/06 12:46:53;;;;;;;3.33;2.00;;;28.20;81.40;;;;;;4973092;28;20081;-88
2022/09/06 12:49:22;;;;;;;2.97;1.83;;;28.20;81.00;;;;;;4956023;28;20034;-87
2022/09/06 12:51:48;;;;;;;4.05;1.65;;;28.20;80.40;;;;;;4956945;28;20023;-88
2022/09/06 12:54:27;;;;;;;3.20;1.88;;;28.20;80.60;;;;;;4946777;28;20394;-88
2022/09/06 12:57:09;;;;;;;4.25;2.55;;;28.20;80.40;;;;;;4960479;28;20117;-88
2022/09/06 12:59:35;;;;;;;4.40;2.08;;;28.20;80.50;;;;;;4972834;28;20026;-88
2022/09/06 13:02:12;;;;;;;5.60;1.83;;;28.20;80.60;;;;;;4973945;28;20023;-88